sensor_id;sensor_type;location;lat;lon;timestamp;temperature;humidity
11122;DHT22;5615;49.304;10.576;2023-05-07T00:02:13;10.10;99.90
11122;DHT22;5615;49.304;10.576;2023-05-07T00:04:40;10.20;99.90
11122;DHT22;5615;49.304;10.576;2023-05-07T00:07:07;10.30;99.90
11122;DHT22;5615;49.304;10.576;2023-05-07T00:09:33;10.30;99.90
11122;DHT22;5615;49.304;10.576;2023-05-07T00:12:01;10.10;99.90
11122;DHT22;5615;49.304;10.576;2023-05-07T00:14:28;10.00;99.90
11122;DHT22;5615;49.304;10.576;2023-05-07T00:16:55;10.10;99.90
11122;DHT22;5615;49.304;10.576;2023-05-07T00:19:21;10.10;99.90
11122;DHT22;5615;49.304;10.576;2023-05-07T00:21:48;10.00;99.90
11122;DHT22;5615;49.304;10.576;2023-05-07T00:24:15;10.00;99.90
11122;DHT22;5615;49.304;10.576;2023-05-07T00:26:41;10.00;99.90
11122;DHT22;5615;49.304;10.576;2023-05-07T00:29:09;10.00;99.90
11122;DHT22;5615;49.304;10.576;2023-05-07T00:31:36;10.10;99.90
11122;DHT22;5615;49.304;10.576;2023-05-07T00:34:02;10.10;99.90
11122;DHT22;5615;49.304;10.576;2023-05-07T00:36:29;10.10;99.90
11122;DHT22;5615;49.304;10.576;2023-05-07T00:38:58;10.20;99.90
11122;DHT22;5615;49.304;10.576;2023-05-07T00:41:25;10.40;99.90
11122;DHT22;5615;49.304;10.576;2023-05-07T00:43:52;10.40;99.90
11122;DHT22;5615;49.304;10.576;2023-05-07T00:46:21;10.40;99.90
11122;DHT22;5615;49.304;10.576;2023-05-07T00:48:48;10.30;99.90
11122;DHT22;5615;49.304;10.576;2023-05-07T00:51:15;10.30;99.90
11122;DHT22;5615;49.304;10.576;2023-05-07T00:53:42;10.30;99.90
11122;DHT22;5615;49.304;10.576;2023-05-07T00:56:09;10.30;99.90
11122;DHT22;5615;49.304;10.576;2023-05-07T00:58:36;10.40;99.90
11122;DHT22;5615;49.304;10.576;2023-05-07T01:01:03;10.40;99.90
11122;DHT22;5615;49.304;10.576;2023-05-07T01:03:31;10.40;99.90
11122;DHT22;5615;49.304;10.576;2023-05-07T01:05:59;10.40;99.90
11122;DHT22;5615;49.304;10.576;2023-05-07T01:08:26;10.40;99.90
11122;DHT22;5615;49.304;10.576;2023-05-07T01:10:55;10.40;99.90
11122;DHT22;5615;49.304;10.576;2023-05-07T01:13:22;10.30;99.90
11122;DHT22;5615;49.304;10.576;2023-05-07T01:15:50;10.30;99.90
11122;DHT22;5615;49.304;10.576;2023-05-07T01:18:16;10.20;99.90
11122;DHT22;5615;49.304;10.576;2023-05-07T01:20:45;10.10;99.90
11122;DHT22;5615;49.304;10.576;2023-05-07T01:23:13;10.00;99.90
11122;DHT22;5615;49.304;10.576;2023-05-07T01:25:40;9.90;99.90
11122;DHT22;5615;49.304;10.576;2023-05-07T01:28:06;9.80;99.90
11122;DHT22;5615;49.304;10.576;2023-05-07T01:30:34;9.70;99.90
11122;DHT22;5615;49.304;10.576;2023-05-07T01:33:03;9.70;99.90
11122;DHT22;5615;49.304;10.576;2023-05-07T01:35:35;9.70;99.90
11122;DHT22;5615;49.304;10.576;2023-05-07T01:38:04;9.80;99.90
11122;DHT22;5615;49.304;10.576;2023-05-07T01:40:33;9.90;99.90
11122;DHT22;5615;49.304;10.576;2023-05-07T01:43:01;10.00;99.90
11122;DHT22;5615;49.304;10.576;2023-05-07T01:45:28;10.00;99.90
11122;DHT22;5615;49.304;10.576;2023-05-07T01:47:56;10.00;99.90
11122;DHT22;5615;49.304;10.576;2023-05-07T01:50:24;10.00;99.90
11122;DHT22;5615;49.304;10.576;2023-05-07T01:52:51;10.00;99.90
11122;DHT22;5615;49.304;10.576;2023-05-07T01:55:18;9.90;99.90
11122;DHT22;5615;49.304;10.576;2023-05-07T01:57:46;9.80;99.90
11122;DHT22;5615;49.304;10.576;2023-05-07T02:00:13;9.90;99.90
11122;DHT22;5615;49.304;10.576;2023-05-07T02:02:39;10.10;99.90
11122;DHT22;5615;49.304;10.576;2023-05-07T02:05:07;10.10;99.90
11122;DHT22;5615;49.304;10.576;2023-05-07T02:07:33;10.00;99.90
11122;DHT22;5615;49.304;10.576;2023-05-07T02:10:00;10.00;99.90
11122;DHT22;5615;49.304;10.576;2023-05-07T02:12:26;10.10;99.90
11122;DHT22;5615;49.304;10.576;2023-05-07T02:14:54;10.10;99.90
11122;DHT22;5615;49.304;10.576;2023-05-07T02:17:21;9.90;99.90
11122;DHT22;5615;49.304;10.576;2023-05-07T02:19:47;9.90;99.90
11122;DHT22;5615;49.304;10.576;2023-05-07T02:22:14;10.00;99.90
11122;DHT22;5615;49.304;10.576;2023-05-07T02:24:41;10.00;99.90
11122;DHT22;5615;49.304;10.576;2023-05-07T02:27:07;9.90;99.90
11122;DHT22;5615;49.304;10.576;2023-05-07T02:29:34;9.90;99.90
11122;DHT22;5615;49.304;10.576;2023-05-07T02:32:02;9.80;99.90
11122;DHT22;5615;49.304;10.576;2023-05-07T02:34:29;9.80;99.90
11122;DHT22;5615;49.304;10.576;2023-05-07T02:36:55;9.90;99.90
11122;DHT22;5615;49.304;10.576;2023-05-07T02:39:22;9.80;99.90
11122;DHT22;5615;49.304;10.576;2023-05-07T02:41:48;9.70;99.90
11122;DHT22;5615;49.304;10.576;2023-05-07T02:44:15;9.70;99.90
11122;DHT22;5615;49.304;10.576;2023-05-07T02:46:42;9.60;99.90
11122;DHT22;5615;49.304;10.576;2023-05-07T02:49:10;9.70;99.90
11122;DHT22;5615;49.304;10.576;2023-05-07T02:51:36;9.70;99.90
11122;DHT22;5615;49.304;10.576;2023-05-07T02:54:03;9.60;99.90
11122;DHT22;5615;49.304;10.576;2023-05-07T02:56:30;9.60;99.90
11122;DHT22;5615;49.304;10.576;2023-05-07T02:58:56;9.70;99.90
11122;DHT22;5615;49.304;10.576;2023-05-07T03:01:23;9.70;99.90
11122;DHT22;5615;49.304;10.576;2023-05-07T03:03:50;9.80;99.90
11122;DHT22;5615;49.304;10.576;2023-05-07T03:06:18;9.80;99.90
11122;DHT22;5615;49.304;10.576;2023-05-07T03:08:44;9.80;99.90
11122;DHT22;5615;49.304;10.576;2023-05-07T03:11:11;9.70;99.90
11122;DHT22;5615;49.304;10.576;2023-05-07T03:13:38;9.80;99.90
11122;DHT22;5615;49.304;10.576;2023-05-07T03:16:05;9.80;99.90
11122;DHT22;5615;49.304;10.576;2023-05-07T03:18:32;9.70;99.90
11122;DHT22;5615;49.304;10.576;2023-05-07T03:20:58;9.70;99.90
11122;DHT22;5615;49.304;10.576;2023-05-07T03:23:26;9.60;99.90
11122;DHT22;5615;49.304;10.576;2023-05-07T03:25:53;9.60;99.90
11122;DHT22;5615;49.304;10.576;2023-05-07T03:28:20;9.60;99.90
11122;DHT22;5615;49.304;10.576;2023-05-07T03:30:46;9.60;99.90
11122;DHT22;5615;49.304;10.576;2023-05-07T03:33:13;9.70;99.90
11122;DHT22;5615;49.304;10.576;2023-05-07T03:35:39;9.70;99.90
11122;DHT22;5615;49.304;10.576;2023-05-07T03:38:06;9.80;99.90
11122;DHT22;5615;49.304;10.576;2023-05-07T03:40:34;9.80;99.90
11122;DHT22;5615;49.304;10.576;2023-05-07T03:43:01;9.90;99.90
11122;DHT22;5615;49.304;10.576;2023-05-07T03:45:28;9.90;99.90
11122;DHT22;5615;49.304;10.576;2023-05-07T03:47:54;9.90;99.90
11122;DHT22;5615;49.304;10.576;2023-05-07T03:50:21;9.80;99.90
11122;DHT22;5615;49.304;10.576;2023-05-07T03:52:48;9.70;99.90
11122;DHT22;5615;49.304;10.576;2023-05-07T03:55:14;9.80;99.90
11122;DHT22;5615;49.304;10.576;2023-05-07T03:57:42;9.90;99.90
11122;DHT22;5615;49.304;10.576;2023-05-07T04:00:10;10.00;99.90
11122;DHT22;5615;49.304;10.576;2023-05-07T04:02:36;10.00;99.90
11122;DHT22;5615;49.304;10.576;2023-05-07T04:05:03;10.00;99.90
11122;DHT22;5615;49.304;10.576;2023-05-07T04:07:30;10.00;99.90
11122;DHT22;5615;49.304;10.576;2023-05-07T04:09:57;10.10;99.90
11122;DHT22;5615;49.304;10.576;2023-05-07T04:12:23;10.00;99.90
11122;DHT22;5615;49.304;10.576;2023-05-07T04:14:51;10.20;99.90
11122;DHT22;5615;49.304;10.576;2023-05-07T04:17:18;10.20;99.90
11122;DHT22;5615;49.304;10.576;2023-05-07T04:19:44;10.30;99.90
11122;DHT22;5615;49.304;10.576;2023-05-07T04:22:12;10.30;99.90
11122;DHT22;5615;49.304;10.576;2023-05-07T04:24:38;10.40;99.90
11122;DHT22;5615;49.304;10.576;2023-05-07T04:27:05;10.50;99.90
11122;DHT22;5615;49.304;10.576;2023-05-07T04:29:31;10.60;99.90
11122;DHT22;5615;49.304;10.576;2023-05-07T04:31:59;10.60;99.90
11122;DHT22;5615;49.304;10.576;2023-05-07T04:34:26;10.70;99.90
11122;DHT22;5615;49.304;10.576;2023-05-07T04:36:53;10.70;99.90
11122;DHT22;5615;49.304;10.576;2023-05-07T04:39:20;10.80;99.90
11122;DHT22;5615;49.304;10.576;2023-05-07T04:41:46;10.90;99.90
11122;DHT22;5615;49.304;10.576;2023-05-07T04:44:13;11.00;99.90
11122;DHT22;5615;49.304;10.576;2023-05-07T04:46:40;11.10;99.90
11122;DHT22;5615;49.304;10.576;2023-05-07T04:49:07;11.20;99.90
11122;DHT22;5615;49.304;10.576;2023-05-07T04:51:34;11.30;99.90
11122;DHT22;5615;49.304;10.576;2023-05-07T04:54:01;11.30;99.90
11122;DHT22;5615;49.304;10.576;2023-05-07T04:56:28;11.30;99.90
11122;DHT22;5615;49.304;10.576;2023-05-07T04:58:55;11.40;99.90
11122;DHT22;5615;49.304;10.576;2023-05-07T05:01:21;11.50;99.90
11122;DHT22;5615;49.304;10.576;2023-05-07T05:03:48;11.60;99.90
11122;DHT22;5615;49.304;10.576;2023-05-07T05:06:16;11.60;99.90
11122;DHT22;5615;49.304;10.576;2023-05-07T05:08:42;11.70;99.90
11122;DHT22;5615;49.304;10.576;2023-05-07T05:11:09;11.70;99.90
11122;DHT22;5615;49.304;10.576;2023-05-07T05:13:36;11.80;99.90
11122;DHT22;5615;49.304;10.576;2023-05-07T05:16:03;11.90;99.90
11122;DHT22;5615;49.304;10.576;2023-05-07T05:18:29;12.00;99.90
11122;DHT22;5615;49.304;10.576;2023-05-07T05:20:56;12.10;99.90
11122;DHT22;5615;49.304;10.576;2023-05-07T05:23:24;12.20;99.90
11122;DHT22;5615;49.304;10.576;2023-05-07T05:25:55;12.30;99.90
11122;DHT22;5615;49.304;10.576;2023-05-07T05:28:21;12.40;99.90
11122;DHT22;5615;49.304;10.576;2023-05-07T05:30:48;12.50;99.90
11122;DHT22;5615;49.304;10.576;2023-05-07T05:33:15;12.70;99.90
11122;DHT22;5615;49.304;10.576;2023-05-07T05:35:42;12.80;99.90
11122;DHT22;5615;49.304;10.576;2023-05-07T05:38:08;13.00;99.90
11122;DHT22;5615;49.304;10.576;2023-05-07T05:40:36;13.20;99.90
11122;DHT22;5615;49.304;10.576;2023-05-07T05:43:03;13.40;99.90
11122;DHT22;5615;49.304;10.576;2023-05-07T05:45:29;13.60;99.90
11122;DHT22;5615;49.304;10.576;2023-05-07T05:47:56;13.80;99.90
11122;DHT22;5615;49.304;10.576;2023-05-07T05:50:23;13.90;99.90
11122;DHT22;5615;49.304;10.576;2023-05-07T05:52:50;14.00;99.90
11122;DHT22;5615;49.304;10.576;2023-05-07T05:55:16;14.20;99.90
11122;DHT22;5615;49.304;10.576;2023-05-07T05:57:44;14.30;99.90
11122;DHT22;5615;49.304;10.576;2023-05-07T06:00:12;14.40;99.90
11122;DHT22;5615;49.304;10.576;2023-05-07T06:02:39;14.50;99.90
11122;DHT22;5615;49.304;10.576;2023-05-07T06:05:06;14.60;99.90
11122;DHT22;5615;49.304;10.576;2023-05-07T06:07:33;14.70;99.90
11122;DHT22;5615;49.304;10.576;2023-05-07T06:10:00;14.70;99.90
11122;DHT22;5615;49.304;10.576;2023-05-07T06:12:26;14.70;99.90
11122;DHT22;5615;49.304;10.576;2023-05-07T06:14:54;14.70;99.90
11122;DHT22;5615;49.304;10.576;2023-05-07T06:17:21;14.80;99.90
11122;DHT22;5615;49.304;10.576;2023-05-07T06:19:48;14.90;99.90
11122;DHT22;5615;49.304;10.576;2023-05-07T06:22:14;14.90;99.90
11122;DHT22;5615;49.304;10.576;2023-05-07T06:24:41;15.10;99.90
11122;DHT22;5615;49.304;10.576;2023-05-07T06:27:08;15.10;99.90
11122;DHT22;5615;49.304;10.576;2023-05-07T06:29:34;15.20;99.90
11122;DHT22;5615;49.304;10.576;2023-05-07T06:32:09;15.20;99.90
11122;DHT22;5615;49.304;10.576;2023-05-07T06:34:36;15.30;99.90
11122;DHT22;5615;49.304;10.576;2023-05-07T06:37:03;15.40;99.90
11122;DHT22;5615;49.304;10.576;2023-05-07T06:39:30;15.50;99.90
11122;DHT22;5615;49.304;10.576;2023-05-07T06:41:56;15.50;99.90
11122;DHT22;5615;49.304;10.576;2023-05-07T06:44:23;15.60;99.90
11122;DHT22;5615;49.304;10.576;2023-05-07T06:46:50;15.70;99.90
11122;DHT22;5615;49.304;10.576;2023-05-07T06:49:18;15.90;99.90
11122;DHT22;5615;49.304;10.576;2023-05-07T06:51:44;16.00;99.90
11122;DHT22;5615;49.304;10.576;2023-05-07T06:54:11;16.10;99.90
11122;DHT22;5615;49.304;10.576;2023-05-07T06:56:37;16.30;99.90
11122;DHT22;5615;49.304;10.576;2023-05-07T06:59:04;16.40;99.90
11122;DHT22;5615;49.304;10.576;2023-05-07T07:01:31;16.60;99.90
11122;DHT22;5615;49.304;10.576;2023-05-07T07:03:57;16.70;99.90
11122;DHT22;5615;49.304;10.576;2023-05-07T07:06:25;16.70;99.90
11122;DHT22;5615;49.304;10.576;2023-05-07T07:08:52;16.80;99.90
11122;DHT22;5615;49.304;10.576;2023-05-07T07:11:18;16.90;99.90
11122;DHT22;5615;49.304;10.576;2023-05-07T07:13:46;17.00;99.90
11122;DHT22;5615;49.304;10.576;2023-05-07T07:16:12;17.10;99.90
11122;DHT22;5615;49.304;10.576;2023-05-07T07:18:39;17.20;99.90
11122;DHT22;5615;49.304;10.576;2023-05-07T07:21:05;17.50;99.90
11122;DHT22;5615;49.304;10.576;2023-05-07T07:23:33;17.60;99.90
11122;DHT22;5615;49.304;10.576;2023-05-07T07:26:00;17.80;99.90
11122;DHT22;5615;49.304;10.576;2023-05-07T07:28:27;18.00;99.90
11122;DHT22;5615;49.304;10.576;2023-05-07T07:30:53;18.20;99.90
11122;DHT22;5615;49.304;10.576;2023-05-07T07:33:20;18.40;99.90
11122;DHT22;5615;49.304;10.576;2023-05-07T07:35:46;18.50;99.90
11122;DHT22;5615;49.304;10.576;2023-05-07T07:38:13;18.50;99.90
11122;DHT22;5615;49.304;10.576;2023-05-07T07:40:41;18.50;99.90
11122;DHT22;5615;49.304;10.576;2023-05-07T07:43:09;18.50;99.90
11122;DHT22;5615;49.304;10.576;2023-05-07T07:45:35;18.40;99.90
11122;DHT22;5615;49.304;10.576;2023-05-07T07:48:02;18.40;99.90
11122;DHT22;5615;49.304;10.576;2023-05-07T07:50:29;18.40;99.90
11122;DHT22;5615;49.304;10.576;2023-05-07T07:52:56;18.30;99.90
11122;DHT22;5615;49.304;10.576;2023-05-07T07:55:23;18.10;99.90
11122;DHT22;5615;49.304;10.576;2023-05-07T07:57:51;18.00;99.90
11122;DHT22;5615;49.304;10.576;2023-05-07T08:00:18;18.00;99.90
11122;DHT22;5615;49.304;10.576;2023-05-07T08:02:44;18.30;99.90
11122;DHT22;5615;49.304;10.576;2023-05-07T08:05:11;18.20;99.90
11122;DHT22;5615;49.304;10.576;2023-05-07T08:07:37;18.40;99.90
11122;DHT22;5615;49.304;10.576;2023-05-07T08:10:04;18.30;99.90
11122;DHT22;5615;49.304;10.576;2023-05-07T08:12:31;18.50;99.90
11122;DHT22;5615;49.304;10.576;2023-05-07T08:14:59;18.50;99.90
11122;DHT22;5615;49.304;10.576;2023-05-07T08:17:26;18.70;99.90
11122;DHT22;5615;49.304;10.576;2023-05-07T08:19:52;18.90;99.90
11122;DHT22;5615;49.304;10.576;2023-05-07T08:22:19;19.20;99.90
11122;DHT22;5615;49.304;10.576;2023-05-07T08:24:47;19.20;99.90
11122;DHT22;5615;49.304;10.576;2023-05-07T08:27:13;19.50;99.90
11122;DHT22;5615;49.304;10.576;2023-05-07T08:29:40;19.80;99.90
11122;DHT22;5615;49.304;10.576;2023-05-07T08:32:08;20.10;99.90
11122;DHT22;5615;49.304;10.576;2023-05-07T08:34:35;20.50;99.90
11122;DHT22;5615;49.304;10.576;2023-05-07T08:37:01;20.80;99.90
11122;DHT22;5615;49.304;10.576;2023-05-07T08:39:28;21.00;99.90
11122;DHT22;5615;49.304;10.576;2023-05-07T08:41:55;21.30;99.90
11122;DHT22;5615;49.304;10.576;2023-05-07T08:44:26;21.30;99.90
11122;DHT22;5615;49.304;10.576;2023-05-07T08:46:53;21.00;99.90
11122;DHT22;5615;49.304;10.576;2023-05-07T08:49:22;20.90;99.90
11122;DHT22;5615;49.304;10.576;2023-05-07T08:51:49;21.00;99.90
11122;DHT22;5615;49.304;10.576;2023-05-07T08:54:16;21.10;99.90
11122;DHT22;5615;49.304;10.576;2023-05-07T08:56:43;21.50;99.90
11122;DHT22;5615;49.304;10.576;2023-05-07T08:59:10;21.40;99.90
11122;DHT22;5615;49.304;10.576;2023-05-07T09:01:37;21.30;99.90
11122;DHT22;5615;49.304;10.576;2023-05-07T09:04:04;21.40;99.90
11122;DHT22;5615;49.304;10.576;2023-05-07T09:06:32;21.50;99.90
11122;DHT22;5615;49.304;10.576;2023-05-07T09:09:00;21.70;99.90
11122;DHT22;5615;49.304;10.576;2023-05-07T09:11:28;21.70;99.90
11122;DHT22;5615;49.304;10.576;2023-05-07T09:13:55;21.80;99.90
11122;DHT22;5615;49.304;10.576;2023-05-07T09:16:25;22.00;99.90
11122;DHT22;5615;49.304;10.576;2023-05-07T09:18:53;22.70;99.90
11122;DHT22;5615;49.304;10.576;2023-05-07T09:21:21;22.60;99.90
11122;DHT22;5615;49.304;10.576;2023-05-07T09:23:50;22.50;99.90
11122;DHT22;5615;49.304;10.576;2023-05-07T09:26:17;22.90;99.90
11122;DHT22;5615;49.304;10.576;2023-05-07T09:28:44;23.40;99.90
11122;DHT22;5615;49.304;10.576;2023-05-07T09:31:12;23.90;99.90
11122;DHT22;5615;49.304;10.576;2023-05-07T09:33:39;24.20;99.90
11122;DHT22;5615;49.304;10.576;2023-05-07T09:36:07;24.00;99.90
11122;DHT22;5615;49.304;10.576;2023-05-07T09:38:35;23.40;99.90
11122;DHT22;5615;49.304;10.576;2023-05-07T09:41:05;23.50;99.90
11122;DHT22;5615;49.304;10.576;2023-05-07T09:43:32;23.80;99.90
11122;DHT22;5615;49.304;10.576;2023-05-07T09:46:02;24.40;99.90
11122;DHT22;5615;49.304;10.576;2023-05-07T09:48:30;24.70;99.90
11122;DHT22;5615;49.304;10.576;2023-05-07T09:50:57;25.10;99.90
11122;DHT22;5615;49.304;10.576;2023-05-07T09:53:29;25.50;99.90
11122;DHT22;5615;49.304;10.576;2023-05-07T09:55:57;25.20;99.90
11122;DHT22;5615;49.304;10.576;2023-05-07T09:58:25;24.90;99.90
11122;DHT22;5615;49.304;10.576;2023-05-07T10:00:53;25.50;99.90
11122;DHT22;5615;49.304;10.576;2023-05-07T10:03:20;25.90;99.90
11122;DHT22;5615;49.304;10.576;2023-05-07T10:05:48;25.70;99.30
11122;DHT22;5615;49.304;10.576;2023-05-07T10:08:15;25.70;98.50
11122;DHT22;5615;49.304;10.576;2023-05-07T10:10:42;25.60;97.80
11122;DHT22;5615;49.304;10.576;2023-05-07T10:13:10;25.60;97.50
11122;DHT22;5615;49.304;10.576;2023-05-07T10:15:38;25.70;97.60
11122;DHT22;5615;49.304;10.576;2023-05-07T10:18:06;26.20;96.90
11122;DHT22;5615;49.304;10.576;2023-05-07T10:20:33;26.30;96.20
11122;DHT22;5615;49.304;10.576;2023-05-07T10:23:04;26.40;95.10
11122;DHT22;5615;49.304;10.576;2023-05-07T10:25:32;26.20;94.60
11122;DHT22;5615;49.304;10.576;2023-05-07T10:28:00;26.00;94.20
11122;DHT22;5615;49.304;10.576;2023-05-07T10:30:38;26.40;93.60
11122;DHT22;5615;49.304;10.576;2023-05-07T10:33:09;26.80;91.30
11122;DHT22;5615;49.304;10.576;2023-05-07T10:35:39;26.80;91.10
11122;DHT22;5615;49.304;10.576;2023-05-07T10:38:07;27.40;90.60
11122;DHT22;5615;49.304;10.576;2023-05-07T10:40:34;27.80;89.10
11122;DHT22;5615;49.304;10.576;2023-05-07T10:43:02;28.00;82.90
11122;DHT22;5615;49.304;10.576;2023-05-07T10:45:30;27.80;79.60
11122;DHT22;5615;49.304;10.576;2023-05-07T10:48:08;28.40;73.90
11122;DHT22;5615;49.304;10.576;2023-05-07T10:50:35;29.00;70.30
11122;DHT22;5615;49.304;10.576;2023-05-07T10:53:22;29.90;70.20
11122;DHT22;5615;49.304;10.576;2023-05-07T10:56:23;30.10;65.00
11122;DHT22;5615;49.304;10.576;2023-05-07T10:58:50;30.80;61.20
11122;DHT22;5615;49.304;10.576;2023-05-07T11:01:49;31.10;56.80
11122;DHT22;5615;49.304;10.576;2023-05-07T11:04:17;31.10;54.40
11122;DHT22;5615;49.304;10.576;2023-05-07T11:10:00;32.10;49.80
11122;DHT22;5615;49.304;10.576;2023-05-07T11:12:49;31.50;46.50
11122;DHT22;5615;49.304;10.576;2023-05-07T11:15:40;31.60;47.20
11122;DHT22;5615;49.304;10.576;2023-05-07T11:18:09;31.80;47.60
11122;DHT22;5615;49.304;10.576;2023-05-07T11:20:51;32.40;45.00
11122;DHT22;5615;49.304;10.576;2023-05-07T11:26:45;32.20;38.10
11122;DHT22;5615;49.304;10.576;2023-05-07T11:29:14;32.10;41.60
11122;DHT22;5615;49.304;10.576;2023-05-07T11:31:40;32.70;41.50
11122;DHT22;5615;49.304;10.576;2023-05-07T11:34:08;32.10;35.80
11122;DHT22;5615;49.304;10.576;2023-05-07T11:36:39;32.30;34.10
11122;DHT22;5615;49.304;10.576;2023-05-07T11:39:23;31.60;36.50
11122;DHT22;5615;49.304;10.576;2023-05-07T11:41:50;32.80;37.50
11122;DHT22;5615;49.304;10.576;2023-05-07T11:44:16;33.20;33.20
11122;DHT22;5615;49.304;10.576;2023-05-07T11:46:43;33.30;30.90
11122;DHT22;5615;49.304;10.576;2023-05-07T11:49:10;32.50;33.20
11122;DHT22;5615;49.304;10.576;2023-05-07T11:51:39;33.00;32.40
11122;DHT22;5615;49.304;10.576;2023-05-07T11:54:06;33.00;31.20
11122;DHT22;5615;49.304;10.576;2023-05-07T11:56:34;33.00;28.00
11122;DHT22;5615;49.304;10.576;2023-05-07T11:59:01;32.90;27.20
11122;DHT22;5615;49.304;10.576;2023-05-07T12:01:28;33.20;28.50
11122;DHT22;5615;49.304;10.576;2023-05-07T12:03:54;33.40;30.00
11122;DHT22;5615;49.304;10.576;2023-05-07T12:06:21;34.20;29.50
11122;DHT22;5615;49.304;10.576;2023-05-07T12:08:49;35.20;27.10
11122;DHT22;5615;49.304;10.576;2023-05-07T12:11:22;35.30;27.30
11122;DHT22;5615;49.304;10.576;2023-05-07T12:13:48;35.40;25.20
11122;DHT22;5615;49.304;10.576;2023-05-07T12:16:15;35.60;26.90
11122;DHT22;5615;49.304;10.576;2023-05-07T12:18:42;36.20;25.60
11122;DHT22;5615;49.304;10.576;2023-05-07T12:21:11;36.30;25.50
11122;DHT22;5615;49.304;10.576;2023-05-07T12:23:38;35.90;25.10
11122;DHT22;5615;49.304;10.576;2023-05-07T12:26:06;36.20;22.70
11122;DHT22;5615;49.304;10.576;2023-05-07T12:28:37;34.50;24.40
11122;DHT22;5615;49.304;10.576;2023-05-07T12:31:05;34.70;25.50
11122;DHT22;5615;49.304;10.576;2023-05-07T12:33:32;34.90;26.30
11122;DHT22;5615;49.304;10.576;2023-05-07T12:36:03;35.90;24.90
11122;DHT22;5615;49.304;10.576;2023-05-07T12:38:34;35.70;23.20
11122;DHT22;5615;49.304;10.576;2023-05-07T12:41:01;35.80;24.30
11122;DHT22;5615;49.304;10.576;2023-05-07T12:43:30;36.30;23.00
11122;DHT22;5615;49.304;10.576;2023-05-07T12:45:58;37.00;22.50
11122;DHT22;5615;49.304;10.576;2023-05-07T12:48:26;37.70;22.50
11122;DHT22;5615;49.304;10.576;2023-05-07T12:50:54;37.40;21.50
11122;DHT22;5615;49.304;10.576;2023-05-07T12:53:23;36.50;22.00
11122;DHT22;5615;49.304;10.576;2023-05-07T12:55:52;36.30;21.70
11122;DHT22;5615;49.304;10.576;2023-05-07T12:58:19;36.20;20.40
11122;DHT22;5615;49.304;10.576;2023-05-07T13:00:49;36.20;20.40
11122;DHT22;5615;49.304;10.576;2023-05-07T13:03:23;37.00;19.60
11122;DHT22;5615;49.304;10.576;2023-05-07T13:05:50;36.90;20.40
11122;DHT22;5615;49.304;10.576;2023-05-07T13:08:27;37.50;19.40
11122;DHT22;5615;49.304;10.576;2023-05-07T13:10:54;37.80;18.80
11122;DHT22;5615;49.304;10.576;2023-05-07T13:13:21;38.70;17.30
11122;DHT22;5615;49.304;10.576;2023-05-07T13:15:49;38.70;15.90
11122;DHT22;5615;49.304;10.576;2023-05-07T13:18:15;39.00;16.50
11122;DHT22;5615;49.304;10.576;2023-05-07T13:20:42;39.20;16.90
11122;DHT22;5615;49.304;10.576;2023-05-07T13:23:09;38.90;16.30
11122;DHT22;5615;49.304;10.576;2023-05-07T13:25:35;38.20;16.20
11122;DHT22;5615;49.304;10.576;2023-05-07T13:28:02;38.10;17.00
11122;DHT22;5615;49.304;10.576;2023-05-07T13:30:29;38.40;17.30
11122;DHT22;5615;49.304;10.576;2023-05-07T13:32:57;39.10;16.90
11122;DHT22;5615;49.304;10.576;2023-05-07T13:35:24;39.60;16.00
11122;DHT22;5615;49.304;10.576;2023-05-07T13:37:51;39.00;16.50
11122;DHT22;5615;49.304;10.576;2023-05-07T13:40:18;39.00;15.60
11122;DHT22;5615;49.304;10.576;2023-05-07T13:42:45;39.10;15.20
11122;DHT22;5615;49.304;10.576;2023-05-07T13:45:11;39.20;15.10
11122;DHT22;5615;49.304;10.576;2023-05-07T13:47:39;38.80;15.00
11122;DHT22;5615;49.304;10.576;2023-05-07T13:50:08;38.10;14.70
11122;DHT22;5615;49.304;10.576;2023-05-07T13:52:36;38.00;15.10
11122;DHT22;5615;49.304;10.576;2023-05-07T13:55:05;36.40;15.80
11122;DHT22;5615;49.304;10.576;2023-05-07T13:57:31;36.80;16.10
11122;DHT22;5615;49.304;10.576;2023-05-07T13:59:58;36.40;16.80
11122;DHT22;5615;49.304;10.576;2023-05-07T14:02:24;36.30;16.50
11122;DHT22;5615;49.304;10.576;2023-05-07T14:04:51;37.00;17.60
11122;DHT22;5615;49.304;10.576;2023-05-07T14:07:19;36.90;17.20
11122;DHT22;5615;49.304;10.576;2023-05-07T14:09:46;37.70;15.90
11122;DHT22;5615;49.304;10.576;2023-05-07T14:12:12;37.60;15.30
11122;DHT22;5615;49.304;10.576;2023-05-07T14:14:39;37.90;15.80
11122;DHT22;5615;49.304;10.576;2023-05-07T14:17:05;37.30;15.00
11122;DHT22;5615;49.304;10.576;2023-05-07T14:19:33;38.00;16.70
11122;DHT22;5615;49.304;10.576;2023-05-07T14:22:00;38.00;16.70
11122;DHT22;5615;49.304;10.576;2023-05-07T14:24:28;37.60;16.70
11122;DHT22;5615;49.304;10.576;2023-05-07T14:26:54;36.80;17.10
11122;DHT22;5615;49.304;10.576;2023-05-07T14:29:21;36.10;17.60
11122;DHT22;5615;49.304;10.576;2023-05-07T14:31:48;34.90;17.70
11122;DHT22;5615;49.304;10.576;2023-05-07T14:34:14;33.60;18.30
11122;DHT22;5615;49.304;10.576;2023-05-07T14:36:41;32.90;18.70
11122;DHT22;5615;49.304;10.576;2023-05-07T14:39:09;33.00;19.00
11122;DHT22;5615;49.304;10.576;2023-05-07T14:41:37;32.90;19.50
11122;DHT22;5615;49.304;10.576;2023-05-07T14:44:04;33.50;19.50
11122;DHT22;5615;49.304;10.576;2023-05-07T14:46:30;33.50;18.90
11122;DHT22;5615;49.304;10.576;2023-05-07T14:48:57;33.20;19.30
11122;DHT22;5615;49.304;10.576;2023-05-07T14:51:23;32.70;19.70
11122;DHT22;5615;49.304;10.576;2023-05-07T14:53:51;32.70;19.90
11122;DHT22;5615;49.304;10.576;2023-05-07T14:56:17;32.30;20.70
11122;DHT22;5615;49.304;10.576;2023-05-07T14:58:46;31.50;22.80
11122;DHT22;5615;49.304;10.576;2023-05-07T15:01:14;30.80;24.00
11122;DHT22;5615;49.304;10.576;2023-05-07T15:03:40;30.00;24.90
11122;DHT22;5615;49.304;10.576;2023-05-07T15:06:07;29.80;25.90
11122;DHT22;5615;49.304;10.576;2023-05-07T15:08:33;29.30;26.60
11122;DHT22;5615;49.304;10.576;2023-05-07T15:11:00;29.00;26.90
11122;DHT22;5615;49.304;10.576;2023-05-07T15:13:27;28.80;27.40
11122;DHT22;5615;49.304;10.576;2023-05-07T15:15:55;28.70;27.70
11122;DHT22;5615;49.304;10.576;2023-05-07T15:18:21;28.80;27.80
11122;DHT22;5615;49.304;10.576;2023-05-07T15:20:48;29.00;27.60
11122;DHT22;5615;49.304;10.576;2023-05-07T15:23:15;29.20;28.20
11122;DHT22;5615;49.304;10.576;2023-05-07T15:25:41;29.20;27.50
11122;DHT22;5615;49.304;10.576;2023-05-07T15:28:08;29.30;27.50
11122;DHT22;5615;49.304;10.576;2023-05-07T15:30:34;29.80;27.60
11122;DHT22;5615;49.304;10.576;2023-05-07T15:33:02;30.20;26.70
11122;DHT22;5615;49.304;10.576;2023-05-07T15:35:29;30.60;26.10
11122;DHT22;5615;49.304;10.576;2023-05-07T15:37:56;30.40;26.00
11122;DHT22;5615;49.304;10.576;2023-05-07T15:40:22;30.50;26.20
11122;DHT22;5615;49.304;10.576;2023-05-07T15:42:49;30.20;25.80